createdAt,value
2023-12-20T00:00:32.128Z,88.0
2023-12-20T00:13:32.133Z,87.0
2023-12-20T00:26:32.384Z,87.0
2023-12-20T00:39:32.144Z,86.0
2023-12-20T00:52:32.125Z,87.0
2023-12-20T01:05:32.155Z,87.0
2023-12-20T01:18:32.132Z,88.0
2023-12-20T01:31:32.169Z,88.0
2023-12-20T01:44:32.156Z,88.0
2023-12-20T01:57:32.157Z,88.0
2023-12-20T02:10:32.150Z,88.0
2023-12-20T02:23:32.160Z,88.0
2023-12-20T02:36:32.176Z,87.0
2023-12-20T02:49:32.206Z,87.0
2023-12-20T03:02:32.175Z,88.0
2023-12-20T03:15:32.183Z,88.0
2023-12-20T03:28:32.256Z,88.0
2023-12-20T03:41:32.178Z,88.0
2023-12-20T03:54:32.194Z,89.0
2023-12-20T04:07:32.263Z,89.0
2023-12-20T04:20:32.191Z,89.0
2023-12-20T04:33:32.219Z,87.0
2023-12-20T04:46:32.200Z,86.0
2023-12-20T04:59:32.231Z,85.0
2023-12-20T05:12:32.219Z,86.0
2023-12-20T05:25:32.256Z,86.0
2023-12-20T05:38:32.253Z,86.0
2023-12-20T05:51:32.245Z,85.0
2023-12-20T06:04:32.254Z,85.0
2023-12-20T06:17:32.311Z,86.0
2023-12-20T06:30:32.286Z,86.0
2023-12-20T06:43:37.919Z,87.0
2023-12-20T06:57:32.253Z,87.0
2023-12-20T07:11:32.271Z,88.0
2023-12-20T07:26:32.281Z,85.0
2023-12-20T07:40:32.335Z,84.0
2023-12-20T07:54:32.285Z,81.0
2023-12-20T08:08:32.302Z,79.0
2023-12-20T08:22:32.360Z,78.0
2023-12-20T08:36:32.307Z,80.0
2023-12-20T08:50:32.475Z,81.0
2023-12-20T09:04:32.333Z,78.0
2023-12-20T09:18:32.316Z,76.0
2023-12-20T09:32:32.335Z,73.0
2023-12-20T09:47:32.337Z,74.0
2023-12-20T10:02:32.320Z,74.0
2023-12-20T10:24:32.357Z,75.0
2023-12-20T10:38:32.398Z,72.0
2023-12-20T10:52:32.445Z,71.0
2023-12-20T11:06:32.411Z,70.0
2023-12-20T11:21:32.412Z,72.0
2023-12-20T11:36:32.401Z,72.0
2023-12-20T12:17:34.044Z,73.0
2023-12-20T12:41:32.394Z,73.0
2023-12-20T12:55:32.541Z,65.0
2023-12-20T13:09:32.411Z,63.0
2023-12-20T13:27:32.404Z,63.0
2023-12-20T13:42:32.405Z,67.0
2023-12-20T14:12:32.410Z,74.0
2023-12-20T14:27:32.452Z,74.0
2023-12-20T14:45:32.460Z,74.0
2023-12-20T14:59:32.484Z,78.0
2023-12-20T15:13:32.575Z,80.0
2023-12-20T15:28:32.506Z,82.0
2023-12-20T15:47:32.528Z,84.0
2023-12-20T16:33:32.496Z,88.0
2023-12-20T17:06:32.513Z,86.0
2023-12-20T17:24:32.531Z,86.0
2023-12-20T18:00:32.565Z,87.0
2023-12-20T18:14:32.530Z,84.0
2023-12-20T18:27:32.538Z,84.0
2023-12-20T18:43:32.985Z,84.0
2023-12-20T18:56:32.600Z,84.0
2023-12-20T19:26:32.690Z,84.0
2023-12-20T19:50:32.586Z,85.0
2023-12-20T20:05:32.764Z,85.0
2023-12-20T20:18:32.714Z,84.0
2023-12-20T20:31:32.636Z,84.0
2023-12-20T21:00:32.611Z,85.0
2023-12-20T22:21:32.669Z,83.0
2023-12-20T22:37:32.698Z,83.0
2023-12-20T23:11:32.642Z,84.0
2023-12-20T23:24:32.678Z,85.0
2023-12-20T23:51:32.686Z,85.0
